Time;durP1;ratioP1;P1;durP2;ratioP2;P2;SDS_P1;SDS_P2;PMS_P1;PMS_P2;Temp;Humidity;BMP_temperature;BMP_pressure;BME280_temperature;BME280_humidity;BME280_pressure;Samples;Min_cycle;Max_cycle;Signal;HPM_P1;HPM_P2
2022/10/07 00:01:46;;;;;;;9.13;4.72;;;;;;;3.47;95.95;99882.09;4188503;28;20059;-70
2022/10/07 00:03:47;;;;;;;7.85;5.22;;;;;;;3.39;96.99;99891.78;4187297;28;20041;-69
2022/10/07 00:05:58;;;;;;;11.07;4.82;;;;;;;3.36;97.70;99886.91;4188748;28;20329;-70
2022/10/07 00:07:59;;;;;;;8.35;5.15;;;;;;;3.35;98.08;99898.97;4188409;28;20114;-70
2022/10/07 00:09:59;;;;;;;7.32;5.15;;;;;;;3.28;97.96;99891.09;4187865;28;20593;-70
2022/10/07 00:11:59;;;;;;;9.10;4.38;;;;;;;3.20;98.04;99886.31;4188665;28;20040;-70
2022/10/07 00:14:02;;;;;;;10.43;5.03;;;;;;;3.16;98.25;99889.94;4188271;28;20040;-70
2022/10/07 00:16:09;;;;;;;7.88;4.78;;;;;;;3.13;98.16;99887.78;4187406;28;20040;-72
2022/10/07 00:18:09;;;;;;;8.48;4.40;;;;;;;3.10;97.46;99886.44;4188086;28;20101;-72
2022/10/07 00:20:10;;;;;;;9.68;4.90;;;;;;;3.06;98.01;99882.66;4187501;28;20812;-72
2022/10/07 00:22:10;;;;;;;7.82;4.78;;;;;;;3.05;98.87;99883.78;4188502;28;20411;-72
2022/10/07 00:24:11;;;;;;;8.05;5.22;;;;;;;3.03;98.82;99886.81;4188420;28;20075;-71
2022/10/07 00:26:17;;;;;;;11.45;5.82;;;;;;;3.03;99.80;99881.34;4188744;28;20516;-71
2022/10/07 00:28:17;;;;;;;9.10;5.15;;;;;;;2.99;100.00;99882.25;4188518;28;20039;-72
2022/10/07 00:30:17;;;;;;;10.05;5.10;;;;;;;2.93;100.00;99881.47;4173106;28;20041;-72
2022/10/07 00:32:18;;;;;;;11.73;5.32;;;;;;;2.86;100.00;99874.75;4186603;28;20073;-71
2022/10/07 00:34:18;;;;;;;8.98;5.13;;;;;;;2.84;100.00;99879.69;4188026;28;20024;-72
2022/10/07 00:36:22;;;;;;;9.38;5.35;;;;;;;2.84;100.00;99872.31;4188133;28;20033;-71
2022/10/07 00:38:22;;;;;;;10.55;5.78;;;;;;;2.83;100.00;99880.81;4187620;28;20063;-72
2022/10/07 00:40:23;;;;;;;8.80;4.90;;;;;;;2.78;100.00;99868.81;4187773;28;20037;-71
2022/10/07 00:42:23;;;;;;;7.93;4.70;;;;;;;2.67;100.00;99867.31;4188066;28;20508;-71
2022/10/07 00:44:30;;;;;;;9.13;5.18;;;;;;;2.61;100.00;99870.41;4187708;28;20123;-71
2022/10/07 00:46:35;;;;;;;9.52;5.43;;;;;;;2.54;100.00;99860.63;4186927;28;20110;-71
2022/10/07 00:48:38;;;;;;;7.65;5.22;;;;;;;2.54;100.00;99859.81;4186961;28;20127;-71
2022/10/07 00:50:38;;;;;;;8.88;4.93;;;;;;;2.53;100.00;99872.66;4187559;28;20071;-71
2022/10/07 00:52:47;;;;;;;11.85;6.40;;;;;;;2.49;100.00;99854.44;4186601;28;20049;-71
2022/10/07 00:54:52;;;;;;;10.98;5.75;;;;;;;2.48;100.00;99858.25;4186441;28;20032;-71
2022/10/07 00:56:52;;;;;;;10.10;5.25;;;;;;;2.46;100.00;99853.06;4186726;28;20447;-71
2022/10/07 00:58:53;;;;;;;10.88;5.07;;;;;;;2.45;100.00;99846.00;4184891;28;20047;-71
2022/10/07 01:00:53;;;;;;;8.52;5.35;;;;;;;2.43;100.00;99845.47;4185743;28;20324;-71
2022/10/07 01:02:53;;;;;;;9.70;5.38;;;;;;;2.40;100.00;99840.59;4185499;28;20120;-71
2022/10/07 01:04:57;;;;;;;10.57;5.50;;;;;;;2.39;100.00;99849.06;4184969;28;20736;-71
2022/10/07 01:06:58;;;;;;;9.52;4.82;;;;;;;2.47;100.00;99846.50;4185720;28;20742;-71
2022/10/07 01:08:58;;;;;;;9.07;5.32;;;;;;;2.51;100.00;99841.28;4185941;28;20072;-71
2022/10/07 01:11:28;;;;;;;9.18;5.25;;;;;;;2.45;100.00;99836.97;4186546;28;20049;-71
2022/10/07 01:13:34;;;;;;;11.63;5.00;;;;;;;2.33;100.00;99834.66;4185830;28;20059;-71
2022/10/07 01:15:49;;;;;;;9.68;5.15;;;;;;;2.29;100.00;99835.53;4185787;28;20067;-70
2022/10/07 01:18:00;;;;;;;8.77;5.00;;;;;;;2.33;100.00;99834.66;4186278;28;20383;-71
2022/10/07 01:20:09;;;;;;;9.32;4.90;;;;;;;2.32;100.00;99824.84;4185340;28;20207;-71
2022/10/07 01:22:19;;;;;;;8.40;5.50;;;;;;;2.28;100.00;99828.44;4183617;28;20037;-71
2022/10/07 01:24:50;;;;;;;9.57;5.35;;;;;;;2.25;99.24;99832.59;4185503;28;20027;-71
2022/10/07 01:26:58;;;;;;;9.55;4.95;;;;;;;2.21;99.32;99829.59;4184708;28;20571;-71
2022/10/07 01:29:03;;;;;;;9.75;5.38;;;;;;;2.15;98.86;99819.00;4184549;28;20499;-71
2022/10/07 01:31:06;;;;;;;10.50;4.57;;;;;;;2.08;98.79;99816.66;4186468;28;20036;-70
2022/10/07 01:33:15;;;;;;;7.32;4.53;;;;;;;2.04;99.56;99809.31;4185708;28;20048;-71
2022/10/07 01:35:24;;;;;;;6.72;4.20;;;;;;;2.09;99.33;99812.81;4184479;28;20488;-71
2022/10/07 01:37:29;;;;;;;10.75;4.63;;;;;;;2.10;98.15;99806.25;4185263;28;20561;-71
2022/10/07 01:39:37;;;;;;;8.48;5.05;;;;;;;2.06;97.20;99807.09;4182745;28;20472;-71
2022/10/07 01:41:38;;;;;;;9.48;4.57;;;;;;;2.01;98.81;99794.34;4184333;28;20049;-71
2022/10/07 01:43:40;;;;;;;8.73;5.13;;;;;;;2.01;98.43;99797.06;4184678;28;20052;-71
2022/10/07 01:45:40;;;;;;;9.73;5.22;;;;;;;2.07;98.56;99787.72;4184853;28;20056;-71
2022/10/07 01:47:41;;;;;;;8.50;4.57;;;;;;;2.06;97.29;99783.34;4185483;28;20131;-71
2022/10/07 01:49:41;;;;;;;6.85;4.80;;;;;;;1.96;96.92;99780.72;4185434;28;20068;-71
2022/10/07 01:51:41;;;;;;;9.68;4.93;;;;;;;1.87;97.58;99782.47;4186105;28;20106;-71
2022/10/07 01:54:03;;;;;;;6.82;4.47;;;;;;;1.94;99.08;99785.69;4185830;28;20419;-71
2022/10/07 01:56:24;;;;;;;7.07;4.03;;;;;;;1.94;97.21;99783.75;4184951;28;20048;-71
2022/10/07 01:58:36;;;;;;;10.43;5.13;;;;;;;1.93;97.37;99786.78;4184580;28;20377;-71
2022/10/07 02:00:46;;;;;;;7.75;4.55;;;;;;;1.92;97.51;99772.31;4183971;28;20050;-71
2022/10/07 02:03:16;;;;;;;7.78;4.90;;;;;;;1.87;97.25;99774.28;4185762;28;20094;-71
2022/10/07 02:05:45;;;;;;;7.53;4.55;;;;;;;1.89;96.21;99774.81;4185103;28;20044;-71
2022/10/07 02:08:00;;;;;;;6.53;4.55;;;;;;;1.82;95.97;99774.31;4184740;28;20040;-70
2022/10/07 02:10:12;;;;;;;9.95;5.03;;;;;;;1.88;97.87;99770.44;4183626;28;20050;-71
2022/10/07 02:12:24;;;;;;;13.07;4.78;;;;;;;1.81;95.96;99778.16;4181292;28;20060;-71
2022/10/07 02:14:37;;;;;;;11.55;4.88;;;;;;;1.75;97.95;99769.22;4184991;28;20044;-71
2022/10/07 02:16:45;;;;;;;9.00;4.60;;;;;;;1.72;98.29;99766.25;4184843;28;20435;-71
2022/10/07 02:18:50;;;;;;;7.80;4.75;;;;;;;1.71;97.37;99761.91;4185153;28;20044;-71
2022/10/07 02:20:52;;;;;;;6.80;5.03;;;;;;;1.59;97.28;99763.09;4184823;28;20039;-71
2022/10/07 02:22:57;;;;;;;8.30;4.57;;;;;;;1.54;97.88;99762.34;4185287;28;20094;-71
2022/10/07 02:24:58;;;;;;;7.65;4.88;;;;;;;1.46;98.51;99766.50;4185874;28;20068;-71
2022/10/07 02:27:04;;;;;;;8.65;5.05;;;;;;;1.39;99.01;99750.44;4185092;28;20040;-71
2022/10/07 02:29:09;;;;;;;8.40;4.75;;;;;;;1.37;100.00;99741.75;4184692;28;20036;-71
2022/10/07 02:31:13;;;;;;;9.60;4.95;;;;;;;1.38;100.00;99746.09;4185183;28;20497;-71
2022/10/07 02:33:15;;;;;;;7.93;4.72;;;;;;;1.38;100.00;99743.38;4185500;28;20040;-70
2022/10/07 02:35:49;;;;;;;11.52;4.90;;;;;;;1.36;100.00;99740.13;4184193;28;20398;-70
2022/10/07 02:37:51;;;;;;;;;;;;;;;1.35;100.00;99751.31;4172143;28;20574;-70
2022/10/07 02:39:55;;;;;;;7.07;4.68;;;;;;;1.42;100.00;99745.56;4187647;28;19923;-70
2022/10/07 02:42:24;;;;;;;8.07;4.28;;;;;;;1.48;100.00;99747.09;4186080;28;20037;-71
2022/10/07 02:44:47;;;;;;;6.88;4.13;;;;;;;1.42;100.00;99738.19;4186423;28;20052;-71
2022/10/07 02:46:54;;;;;;;8.23;4.43;;;;;;;1.38;100.00;99748.03;4184188;28;20085;-71
2022/10/07 02:49:08;;;;;;;10.57;5.55;;;;;;;1.40;100.00;99741.16;4184252;28;20089;-70
2022/10/07 02:51:17;;;;;;;9.48;4.60;;;;;;;1.38;100.00;99742.56;4186316;28;20469;-70
2022/10/07 02:53:20;;;;;;;7.65;4.65;;;;;;;1.36;100.00;99736.59;4186075;28;20044;-71
2022/10/07 02:55:25;;;;;;;10.77;4.72;;;;;;;1.30;100.00;99727.63;4185353;28;20098;-70
2022/10/07 02:57:29;;;;;;;8.00;4.03;;;;;;;1.26;100.00;99733.97;4172752;28;20488;-70
2022/10/07 02:59:32;;;;;;;7.82;4.50;;;;;;;1.13;100.00;99738.97;4181773;28;20051;-70
2022/10/07 03:01:38;;;;;;;7.50;5.00;;;;;;;1.04;100.00;99724.31;4185892;28;20115;-70
2022/10/07 03:03:38;;;;;;;10.48;4.60;;;;;;;1.02;100.00;99729.25;4185425;28;20083;-70
2022/10/07 03:05:39;;;;;;;9.02;4.72;;;;;;;1.01;100.00;99714.00;4185446;28;20044;-71
2022/10/07 03:07:40;;;;;;;6.38;4.45;;;;;;;1.12;100.00;99720.16;4185397;28;20105;-70
2022/10/07 03:09:41;;;;;;;7.47;4.72;;;;;;;1.18;100.00;99718.22;4184708;28;20051;-69
2022/10/07 03:11:41;;;;;;;13.80;4.80;;;;;;;1.13;100.00;99727.25;4170409;28;20037;-70
2022/10/07 03:13:42;;;;;;;8.07;4.28;;;;;;;1.11;100.00;99719.34;4184868;28;20115;-70
2022/10/07 03:15:43;;;;;;;8.40;4.97;;;;;;;1.16;100.00;99726.69;4185381;28;20132;-70
2022/10/07 03:17:43;;;;;;;7.53;4.45;;;;;;;1.09;100.00;99713.38;4185852;28;20115;-70
2022/10/07 03:19:43;;;;;;;6.18;4.22;;;;;;;1.14;100.00;99717.97;4183482;28;20060;-70
2022/10/07 03:21:44;;;;;;;12.07;4.97;;;;;;;1.18;100.00;99716.31;4185391;28;20373;-70
2022/10/07 03:23:44;;;;;;;8.02;4.25;;;;;;;1.29;100.00;99719.75;4186699;28;20041;-70
2022/10/07 03:25:50;;;;;;;8.40;5.00;;;;;;;1.24;99.69;99712.44;4186046;28;20040;-70
2022/10/07 03:27:53;;;;;;;7.78;4.32;;;;;;;1.18;99.05;99707.31;4188745;28;20102;-70
2022/10/07 03:29:54;;;;;;;7.55;5.05;;;;;;;1.07;98.39;99710.09;4188951;28;20051;-70
2022/10/07 03:31:54;;;;;;;7.63;4.18;;;;;;;0.98;98.54;99695.47;4184864;28;20036;-70
2022/10/07 03:33:55;;;;;;;6.82;4.25;;;;;;;0.87;98.80;99704.84;4190013;28;20093;-70
2022/10/07 03:35:56;;;;;;;9.43;4.57;;;;;;;0.78;99.42;99698.38;4188686;28;20048;-70
2022/10/07 03:37:56;;;;;;;8.77;4.40;;;;;;;0.73;100.00;99691.03;4188911;28;20045;-70
2022/10/07 03:39:56;;;;;;;8.10;4.53;;;;;;;0.73;100.00;99695.66;4187924;28;20049;-70
2022/10/07 03:41:57;;;;;;;6.97;4.60;;;;;;;0.71;100.00;99700.59;4189302;28;20041;-70
2022/10/07 03:43:57;;;;;;;6.05;4.07;;;;;;;0.69;100.00;99700.88;4187210;28;20063;-70
2022/10/07 03:46:01;;;;;;;7.90;3.70;;;;;;;0.67;100.00;99694.09;4188620;28;20488;-70
2022/10/07 03:48:02;;;;;;;6.45;3.95;;;;;;;0.68;100.00;99703.91;4188584;28;20235;-71
2022/10/07 03:50:02;;;;;;;7.30;4.65;;;;;;;0.62;100.00;99696.84;4188684;28;20398;-71
2022/10/07 03:52:03;;;;;;;8.63;4.43;;;;;;;0.59;100.00;99698.22;4187978;28;20073;-70
2022/10/07 03:54:03;;;;;;;7.97;4.82;;;;;;;0.58;100.00;99699.34;4187186;28;20044;-70
2022/10/07 03:56:03;;;;;;;6.95;4.40;;;;;;;0.74;100.00;99708.19;4188267;28;20500;-70
2022/10/07 03:58:04;;;;;;;5.22;3.78;;;;;;;0.78;100.00;99703.81;4188723;28;20113;-71
2022/10/07 04:00:05;;;;;;;10.48;4.68;;;;;;;0.76;100.00;99693.22;4188269;28;20032;-71
2022/10/07 04:02:05;;;;;;;7.28;4.50;;;;;;;0.78;100.00;99691.00;4188678;28;20033;-70
2022/10/07 04:04:06;;;;;;;7.70;3.95;;;;;;;0.73;99.57;99687.50;4188820;28;20446;-70
2022/10/07 04:06:07;;;;;;;8.80;4.30;;;;;;;0.69;98.91;99681.00;4188409;28;20028;-70
2022/10/07 04:08:10;;;;;;;9.27;3.92;;;;;;;0.56;98.42;99677.00;4188061;28;20035;-70
2022/10/07 04:10:14;;;;;;;7.15;4.18;;;;;;;0.47;98.73;99681.41;4187813;28;20021;-70
2022/10/07 04:12:14;;;;;;;9.98;4.38;;;;;;;0.40;99.76;99676.28;4188522;28;20508;-70
2022/10/07 04:14:15;;;;;;;8.73;4.60;;;;;;;0.48;100.00;99675.69;4186960;28;20032;-70
2022/10/07 04:16:16;;;;;;;10.02;4.28;;;;;;;0.60;100.00;99674.53;4188665;28;20082;-70
2022/10/07 04:18:16;;;;;;;6.35;4.55;;;;;;;0.62;100.00;99670.41;4188124;28;20028;-70
2022/10/07 04:20:17;;;;;;;7.88;4.10;;;;;;;0.56;99.54;99668.81;4188149;28;20390;-70
2022/10/07 04:22:17;;;;;;;7.63;4.07;;;;;;;0.50;99.16;99661.81;4188309;28;20029;-70
2022/10/07 04:24:17;;;;;;;9.23;4.25;;;;;;;0.48;99.35;99661.25;4188018;28;20103;-70
2022/10/07 04:26:17;;;;;;;6.40;4.05;;;;;;;0.55;100.00;99669.91;4188604;28;20544;-70
2022/10/07 04:28:20;;;;;;;6.63;3.58;;;;;;;0.49;100.00;99666.41;4187363;28;20115;-70
2022/10/07 04:30:23;;;;;;;7.88;3.70;;;;;;;0.37;99.80;99662.44;4187866;28;20139;-70
2022/10/07 04:32:23;;;;;;;8.68;5.18;;;;;;;0.32;99.57;99665.16;4188272;28;20040;-70
2022/10/07 04:34:24;;;;;;;8.50;4.45;;;;;;;0.29;100.00;99658.38;4188052;28;20044;-70
2022/10/07 04:36:26;;;;;;;8.63;4.55;;;;;;;0.27;100.00;99660.59;4188181;28;20032;-70
2022/10/07 04:38:26;;;;;;;6.85;4.68;;;;;;;0.24;100.00;99661.94;4186455;28;20478;-70
2022/10/07 04:40:27;;;;;;;8.88;3.97;;;;;;;0.18;100.00;99654.91;4188021;28;20040;-70
2022/10/07 04:44:46;;;;;;;8.52;4.38;;;;;;;0.15;100.00;99646.47;4186970;28;20042;-70
2022/10/07 04:46:46;;;;;;;7.45;4.65;;;;;;;0.15;100.00;99644.56;4188006;28;20068;-70
2022/10/07 04:48:46;;;;;;;9.52;4.95;;;;;;;0.12;100.00;99644.34;4187380;28;20457;-70
2022/10/07 04:50:47;;;;;;;12.00;4.38;;;;;;;0.08;100.00;99641.34;4187965;28;20128;-69
2022/10/07 04:52:48;;;;;;;8.38;4.43;;;;;;;0.08;100.00;99649.50;4187043;28;20128;-70
2022/10/07 04:54:48;;;;;;;7.22;4.07;;;;;;;0.13;100.00;99643.25;4187543;28;20083;-70
2022/10/07 04:56:48;;;;;;;7.72;4.90;;;;;;;0.13;100.00;99651.41;4188120;28;20044;-70
2022/10/07 04:58:49;;;;;;;9.23;4.80;;;;;;;0.07;100.00;99644.34;4114663;28;20059;-70
2022/10/07 05:00:52;;;;;;;12.00;4.75;;;;;;;0.05;100.00;99641.91;4191124;28;20060;-69
2022/10/07 05:02:52;;;;;;;11.68;4.80;;;;;;;0.04;100.00;99636.75;4187577;28;20043;-70
2022/10/07 05:04:52;;;;;;;9.65;4.97;;;;;;;0.01;100.00;99635.44;4187755;28;20458;-69
2022/10/07 05:06:53;;;;;;;7.15;4.18;;;;;;;-0.02;100.00;99639.50;4187336;28;20047;-69
2022/10/07 05:08:53;;;;;;;10.05;4.65;;;;;;;-0.02;100.00;99635.97;4187236;28;20127;-69
2022/10/07 05:10:58;;;;;;;7.47;4.18;;;;;;;-0.04;100.00;99636.25;4187314;28;20374;-69
2022/10/07 05:13:00;;;;;;;9.70;5.22;;;;;;;-0.07;100.00;99636.81;4185860;28;20376;-69
2022/10/07 05:15:00;;;;;;;6.88;4.30;;;;;;;-0.10;100.00;99631.09;4187260;28;20090;-69
2022/10/07 05:17:01;;;;;;;11.93;5.70;;;;;;;-0.12;100.00;99636.84;4187514;28;20502;-69
2022/10/07 05:19:01;;;;;;;9.98;5.75;;;;;;;-0.15;100.00;99633.88;4187129;28;20155;-69
2022/10/07 05:21:06;;;;;;;10.98;6.57;;;;;;;-0.16;100.00;99629.53;4184382;28;20059;-69
2022/10/07 05:23:06;;;;;;;16.13;6.43;;;;;;;-0.15;100.00;99625.72;4186249;28;20385;-69
2022/10/07 05:25:06;;;;;;;14.20;7.18;;;;;;;-0.13;100.00;99627.03;4187405;28;20043;-69
2022/10/07 05:27:07;;;;;;;11.50;6.55;;;;;;;-0.13;100.00;99634.41;4187365;28;20048;-69
2022/10/07 05:29:08;;;;;;;16.42;7.10;;;;;;;-0.15;100.00;99623.00;4186754;28;20154;-69
2022/10/07 05:31:13;;;;;;;14.18;7.20;;;;;;;-0.20;100.00;99621.09;4185381;28;20052;-69
2022/10/07 05:33:15;;;;;;;18.35;8.32;;;;;;;-0.21;100.00;99618.66;4186633;28;20052;-69
2022/10/07 05:35:16;;;;;;;12.70;7.83;;;;;;;-0.23;100.00;99615.41;4186247;28;20048;-69
2022/10/07 05:37:16;;;;;;;21.10;8.70;;;;;;;-0.30;100.00;99613.81;4186525;28;20802;-69
2022/10/07 05:39:16;;;;;;;13.93;7.70;;;;;;;-0.32;100.00;99617.91;4185645;28;20036;-69
2022/10/07 05:41:17;;;;;;;13.05;5.97;;;;;;;-0.34;100.00;99612.72;4187050;28;20709;-69
2022/10/07 05:43:19;;;;;;;15.75;6.85;;;;;;;-0.35;100.00;99607.56;4186972;28;20194;-69
2022/10/07 05:45:19;;;;;;;11.90;6.15;;;;;;;-0.36;100.00;99611.38;4186803;28;20052;-69
2022/10/07 05:47:20;;;;;;;14.93;6.32;;;;;;;-0.37;100.00;99609.75;4187426;28;20048;-69
2022/10/07 05:49:20;;;;;;;17.23;7.00;;;;;;;-0.38;100.00;99608.94;4186325;28;20251;-69
2022/10/07 05:51:22;;;;;;;10.82;5.70;;;;;;;-0.32;100.00;99609.75;4186386;28;20036;-69
2022/10/07 05:53:26;;;;;;;8.90;5.20;;;;;;;-0.34;100.00;99607.28;4186905;28;20197;-69
2022/10/07 05:55:27;;;;;;;8.43;5.05;;;;;;;-0.31;100.00;99614.09;4186870;28;20500;-69
2022/10/07 05:57:27;;;;;;;11.25;6.07;;;;;;;-0.29;100.00;99603.72;4186654;28;20087;-69
2022/10/07 05:59:28;;;;;;;11.05;5.78;;;;;;;-0.27;100.00;99606.97;4186062;28;20045;-69
2022/10/07 06:01:28;;;;;;;9.95;5.60;;;;;;;-0.26;100.00;99602.34;4186588;28;20053;-69
2022/10/07 06:03:29;;;;;;;11.43;5.18;;;;;;;-0.25;100.00;99604.78;4186679;28;20094;-69
2022/10/07 06:05:31;;;;;;;12.38;6.22;;;;;;;-0.24;100.00;99597.47;4186260;28;20048;-69
2022/10/07 06:07:31;;;;;;;12.48;5.97;;;;;;;-0.18;100.00;99608.03;4186332;28;20040;-69
2022/10/07 06:14:23;;;;;;;16.48;6.80;;;;;;;-0.07;100.00;99601.44;4162712;28;20040;-69
2022/10/07 06:16:23;;;;;;;28.00;8.45;;;;;;;-0.04;100.00;99600.88;4186428;28;20068;-69
2022/10/07 06:18:24;;;;;;;34.20;7.85;;;;;;;-0.01;100.00;99594.88;4186129;28;20076;-69
2022/10/07 06:20:24;;;;;;;45.58;10.55;;;;;;;0.03;100.00;99597.84;4186084;28;20044;-69
2022/10/07 06:22:24;;;;;;;21.33;9.40;;;;;;;0.07;100.00;99600.81;4186278;28;20321;-69
2022/10/07 06:24:25;;;;;;;16.83;6.70;;;;;;;0.11;100.00;99599.97;4186135;28;20064;-69
2022/10/07 06:26:25;;;;;;;13.13;4.93;;;;;;;0.26;100.00;99604.53;4186670;28;20075;-69
2022/10/07 06:28:31;;;;;;;7.20;4.15;;;;;;;0.33;100.00;99599.53;4185417;28;20040;-69
2022/10/07 06:30:32;;;;;;;8.65;4.32;;;;;;;0.41;100.00;99598.94;4186419;28;20432;-69
2022/10/07 06:32:32;;;;;;;8.88;4.68;;;;;;;0.53;100.00;99607.56;4186071;28;20041;-69
2022/10/07 06:34:33;;;;;;;14.45;5.13;;;;;;;0.57;100.00;99605.91;4186255;28;20044;-69
2022/10/07 06:36:33;;;;;;;13.18;5.25;;;;;;;0.57;100.00;99603.16;4186161;28;20484;-69
2022/10/07 06:38:33;;;;;;;8.75;4.78;;;;;;;0.64;100.00;99600.13;4185688;28;20044;-69
2022/10/07 06:40:33;;;;;;;7.80;4.47;;;;;;;0.67;100.00;99599.56;4186248;28;20252;-69
2022/10/07 06:42:34;;;;;;;8.25;4.25;;;;;;;0.73;100.00;99608.50;4186230;28;20043;-69
2022/10/07 06:44:34;;;;;;;14.15;3.92;;;;;;;0.78;100.00;99609.28;4186109;28;20081;-69
2022/10/07 06:46:34;;;;;;;6.43;3.90;;;;;;;0.84;100.00;99605.41;4186091;28;20515;-69
2022/10/07 06:48:35;;;;;;;5.80;3.63;;;;;;;0.88;100.00;99602.91;4185565;28;20056;-69
2022/10/07 06:50:35;;;;;;;8.70;4.00;;;;;;;0.96;100.00;99602.28;4186159;28;20119;-69
2022/10/07 06:52:35;;;;;;;7.85;4.10;;;;;;;1.01;100.00;99606.91;4185943;28;20041;-69
2022/10/07 06:54:36;;;;;;;7.35;3.78;;;;;;;1.07;100.00;99601.09;4186293;28;20812;-69
2022/10/07 06:56:37;;;;;;;5.38;3.65;;;;;;;1.13;100.00;99599.94;4185743;28;20055;-69
2022/10/07 06:58:38;;;;;;;6.60;3.50;;;;;;;1.18;100.00;99595.53;4185503;28;20335;-69
2022/10/07 07:00:38;;;;;;;7.22;3.97;;;;;;;1.26;100.00;99595.72;4186851;28;20049;-69
2022/10/07 07:02:39;;;;;;;6.72;4.60;;;;;;;1.35;100.00;99607.63;4190688;28;20041;-69
2022/10/07 07:04:39;;;;;;;8.65;5.75;;;;;;;1.45;100.00;99603.16;4191189;28;20033;-69
2022/10/07 07:06:39;;;;;;;6.15;4.20;;;;;;;1.57;100.00;99609.00;4191623;28;20115;-69
2022/10/07 07:08:40;;;;;;;10.13;4.50;;;;;;;1.65;100.00;99611.88;4191196;28;20040;-70
2022/10/07 07:10:42;;;;;;;9.52;4.85;;;;;;;1.78;100.00;99604.09;4191200;28;20040;-70
2022/10/07 07:12:42;;;;;;;11.60;4.68;;;;;;;1.89;100.00;99606.41;4191101;28;20151;-69
2022/10/07 07:14:44;;;;;;;9.23;5.43;;;;;;;2.08;100.00;99606.44;4191803;28;20510;-70
2022/10/07 07:16:44;;;;;;;6.90;5.13;;;;;;;2.18;100.00;99595.38;4191167;28;20036;-70
2022/10/07 07:18:50;;;;;;;7.07;3.83;;;;;;;2.27;100.00;99600.16;4190388;28;20203;-70
2022/10/07 07:20:50;;;;;;;7.97;4.70;;;;;;;2.37;100.00;99595.34;4191226;28;20260;-70
2022/10/07 07:22:51;;;;;;;11.40;4.80;;;;;;;2.50;100.00;99599.25;4191611;28;20123;-69
2022/10/07 07:24:52;;;;;;;7.30;4.90;;;;;;;2.63;100.00;99594.94;4191235;28;20043;-70
2022/10/07 07:26:52;;;;;;;8.45;5.03;;;;;;;2.77;100.00;99599.34;4191423;28;20036;-70
2022/10/07 07:28:55;;;;;;;8.23;4.82;;;;;;;2.93;100.00;99601.81;4190775;28;20459;-70
2022/10/07 07:30:56;;;;;;;10.25;4.85;;;;;;;2.99;100.00;99598.69;4191737;28;20056;-70
2022/10/07 07:32:56;;;;;;;6.13;3.47;;;;;;;3.06;100.00;99593.66;4190730;28;20519;-70
2022/10/07 07:34:59;;;;;;;6.55;3.78;;;;;;;3.12;100.00;99585.34;4191187;28;20610;-70
2022/10/07 07:36:59;;;;;;;;;;;;;;;3.24;100.00;99588.41;4191519;28;20047;-70
2022/10/07 07:39:04;;;;;;;6.82;3.40;;;;;;;3.29;100.00;99594.56;4190832;28;19920;-70
2022/10/07 07:41:05;;;;;;;8.70;4.10;;;;;;;3.34;100.00;99586.28;4191399;28;20381;-70
2022/10/07 07:43:06;;;;;;;8.40;4.32;;;;;;;3.50;100.00;99588.72;4191120;28;20124;-70
2022/10/07 07:45:06;;;;;;;8.23;3.70;;;;;;;3.54;100.00;99586.97;4191124;28;20123;-70
2022/10/07 07:47:08;;;;;;;6.55;4.15;;;;;;;3.57;100.00;99583.66;4190794;28;20458;-70
2022/10/07 07:49:10;;;;;;;8.10;4.32;;;;;;;3.63;100.00;99577.75;4190293;28;20075;-70
2022/10/07 07:51:12;;;;;;;6.53;3.97;;;;;;;3.69;100.00;99573.00;4191172;28;20040;-70
2022/10/07 07:53:13;;;;;;;9.35;4.65;;;;;;;3.85;100.00;99576.22;4190837;28;20040;-70
2022/10/07 07:55:13;;;;;;;10.93;4.65;;;;;;;3.95;100.00;99573.25;4191388;28;20048;-70
2022/10/07 07:57:14;;;;;;;6.10;3.50;;;;;;;4.05;100.00;99577.69;4190875;28;20039;-70
2022/10/07 07:59:15;;;;;;;5.75;3.50;;;;;;;4.13;100.00;99568.75;4190366;28;20041;-70
2022/10/07 08:01:17;;;;;;;7.65;3.78;;;;;;;4.31;100.00;99558.75;4190921;28;20813;-70
2022/10/07 08:03:18;;;;;;;7.10;3.70;;;;;;;4.41;100.00;99555.78;4191317;28;20095;-70
2022/10/07 08:05:19;;;;;;;7.57;4.13;;;;;;;4.48;100.00;99554.22;4190863;28;20036;-70
2022/10/07 08:07:19;;;;;;;6.03;3.78;;;;;;;4.56;100.00;99552.66;4191262;28;20470;-70
2022/10/07 08:09:19;;;;;;;7.63;4.22;;;;;;;4.62;100.00;99556.06;4190794;28;20097;-70
2022/10/07 08:11:19;;;;;;;7.05;3.95;;;;;;;4.69;100.00;99554.50;4190687;28;20135;-70
2022/10/07 08:13:20;;;;;;;5.65;3.55;;;;;;;4.78;100.00;99554.56;4187813;28;20044;-70
2022/10/07 08:15:20;;;;;;;8.68;4.03;;;;;;;4.85;100.00;99549.44;4188167;28;20397;-70
2022/10/07 08:17:20;;;;;;;10.00;3.70;;;;;;;4.93;100.00;99550.63;4188277;28;20066;-70
2022/10/07 08:19:21;;;;;;;6.07;3.70;;;;;;;5.04;100.00;99547.28;4187995;28;20503;-70
2022/10/07 08:21:25;;;;;;;6.68;4.07;;;;;;;5.23;100.00;99549.81;4188336;28;20056;-70
2022/10/07 08:23:28;;;;;;;5.43;3.63;;;;;;;5.33;100.00;99540.47;4188539;28;20072;-70
2022/10/07 08:25:28;;;;;;;6.20;3.67;;;;;;;5.44;100.00;99546.47;4188414;28;20040;-70
2022/10/07 08:27:29;;;;;;;12.57;5.28;;;;;;;5.51;100.00;99544.88;4188430;28;20045;-70
2022/10/07 08:29:29;;;;;;;10.80;3.47;;;;;;;5.58;100.00;99539.75;4187190;28;20491;-70
2022/10/07 08:31:30;;;;;;;6.57;4.00;;;;;;;5.72;100.00;99541.56;4188456;28;20041;-70
2022/10/07 08:33:35;;;;;;;9.32;4.53;;;;;;;5.83;100.00;99534.63;4188014;28;20040;-70
2022/10/07 08:35:35;;;;;;;6.53;3.80;;;;;;;6.05;100.00;99533.72;4187528;28;20476;-70
2022/10/07 08:37:36;;;;;;;5.95;3.83;;;;;;;6.24;100.00;99530.66;4188012;28;20045;-70
2022/10/07 08:39:36;;;;;;;8.48;3.67;;;;;;;6.33;100.00;99532.25;4187425;28;20056;-70
2022/10/07 08:42:12;;;;;;;4.30;3.15;;;;;;;6.45;98.11;99526.09;4175168;28;20235;-70
2022/10/07 08:44:12;;;;;;;5.03;3.30;;;;;;;6.49;94.98;99529.81;4187023;28;20465;-70
2022/10/07 08:46:15;;;;;;;6.18;3.63;;;;;;;6.56;95.58;99526.59;4187946;28;20052;-70
2022/10/07 08:48:20;;;;;;;6.43;3.35;;;;;;;6.66;97.59;99524.28;4187969;28;20369;-71
2022/10/07 08:50:42;;;;;;;10.60;3.85;;;;;;;6.74;97.85;99522.66;4187789;28;20719;-70
2022/10/07 08:52:52;;;;;;;6.50;3.63;;;;;;;6.86;97.66;99528.28;4187669;28;20185;-70
2022/10/07 08:54:53;;;;;;;8.07;3.33;;;;;;;7.00;96.62;99519.84;4186905;28;20045;-70
2022/10/07 08:57:01;;;;;;;7.55;3.80;;;;;;;7.13;97.01;99513.31;4187987;28;20698;-70
2022/10/07 08:59:04;;;;;;;8.70;4.15;;;;;;;7.25;97.21;99509.84;4187108;28;20488;-71
2022/10/07 09:01:32;;;;;;;7.82;3.25;;;;;;;7.38;96.95;99500.56;4188207;28;20064;-70
2022/10/07 09:03:48;;;;;;;8.68;3.97;;;;;;;7.60;97.83;99513.22;4187495;28;20067;-70
2022/10/07 09:05:50;;;;;;;5.15;3.65;;;;;;;7.90;96.74;99500.25;4187825;28;20040;-70
2022/10/07 09:07:55;;;;;;;9.48;3.80;;;;;;;8.13;95.76;99506.25;4187705;28;20040;-70
2022/10/07 09:10:02;;;;;;;10.38;3.40;;;;;;;8.30;94.70;99503.34;4173750;28;20075;-70
2022/10/07 09:12:13;;;;;;;8.52;3.50;;;;;;;8.38;93.11;99498.91;4187294;28;20044;-70
2022/10/07 09:14:26;;;;;;;5.63;3.05;;;;;;;8.54;93.34;99504.59;4186965;28;20558;-71
2022/10/07 09:16:42;;;;;;;7.32;4.05;;;;;;;8.66;92.01;99499.13;4187191;28;20502;-70
2022/10/07 09:18:52;;;;;;;6.82;3.20;;;;;;;8.83;92.59;99492.59;4187146;28;20047;-71
2022/10/07 09:20:55;;;;;;;6.45;3.88;;;;;;;9.00;90.82;99482.16;4187339;28;20219;-71
2022/10/07 09:22:57;;;;;;;3.50;2.80;;;;;;;9.11;90.64;99473.47;4187480;28;20047;-71
2022/10/07 09:25:10;;;;;;;4.97;2.80;;;;;;;9.09;89.95;99473.78;4186740;28;20534;-71
2022/10/07 09:27:14;;;;;;;5.25;2.70;;;;;;;9.18;90.61;99473.66;4187170;28;20060;-71
2022/10/07 09:29:19;;;;;;;5.82;3.00;;;;;;;9.30;88.73;99468.16;4185446;28;20040;-71
2022/10/07 09:31:22;;;;;;;6.43;3.03;;;;;;;9.47;87.30;99467.13;4187222;28;20048;-71
2022/10/07 09:33:23;;;;;;;5.28;2.70;;;;;;;9.54;87.61;99465.38;4187066;28;20093;-70
2022/10/07 09:35:28;;;;;;;7.57;3.08;;;;;;;9.60;87.60;99456.84;4187070;28;20071;-71
2022/10/07 09:37:28;;;;;;;4.97;2.60;;;;;;;9.59;88.51;99464.31;4186727;28;20106;-71
2022/10/07 09:39:29;;;;;;;4.93;2.38;;;;;;;9.65;86.74;99459.38;4186865;28;20107;-71
2022/10/07 09:41:34;;;;;;;4.40;2.60;;;;;;;9.70;86.79;99448.91;4187034;28;20039;-71
2022/10/07 09:43:36;;;;;;;5.47;2.67;;;;;;;9.78;86.55;99449.94;4186642;28;20044;-71
2022/10/07 09:45:36;;;;;;;4.28;2.20;;;;;;;9.80;86.43;99440.13;4187122;28;20329;-71
2022/10/07 09:47:39;;;;;;;4.07;2.85;;;;;;;9.93;85.91;99440.91;4187427;28;20219;-71
2022/10/07 09:49:41;;;;;;;4.30;1.85;;;;;;;10.09;84.08;99438.16;4186456;28;20090;-71